createdAt,value
2019-01-08T00:00:21.172Z,101477.87
2019-01-08T00:02:53.015Z,101464.98
2019-01-08T00:05:23.376Z,101471.37
2019-01-08T00:07:53.666Z,101461.34
2019-01-08T00:10:24.011Z,101456.59
2019-01-08T00:12:54.824Z,101464.88
2019-01-08T00:15:25.104Z,101455.90
2019-01-08T00:17:57.429Z,101464.84
2019-01-08T00:20:28.013Z,101460.91
2019-01-08T00:22:58.408Z,101459.16
2019-01-08T00:25:29.162Z,101446.17
2019-01-08T00:27:59.571Z,101433.77
2019-01-08T00:30:29.842Z,101431.67
2019-01-08T00:33:00.106Z,101417.80
2019-01-08T00:35:31.144Z,101425.00
2019-01-08T00:38:01.855Z,101417.70
2019-01-08T00:40:32.199Z,101424.88
2019-01-08T00:43:02.576Z,101424.52
2019-01-08T00:45:32.898Z,101415.85
2019-01-08T00:48:03.185Z,101414.44
2019-01-08T00:50:34.656Z,101419.19
2019-01-08T00:53:06.495Z,101403.30
2019-01-08T00:55:37.168Z,101404.16
2019-01-08T00:58:07.597Z,101409.25
2019-01-08T01:00:41.112Z,101417.00
2019-01-08T01:03:11.481Z,101420.10
2019-01-08T01:05:42.319Z,101402.48
2019-01-08T01:08:13.985Z,101433.95
2019-01-08T01:10:44.257Z,101433.37
2019-01-08T01:13:14.532Z,101427.23
2019-01-08T01:15:45.243Z,101425.56
2019-01-08T01:18:17.311Z,101429.53
2019-01-08T01:20:47.678Z,101425.33
2019-01-08T01:23:18.037Z,101411.75
2019-01-08T01:25:48.435Z,101412.45
2019-01-08T01:28:19.566Z,101415.55
2019-01-08T01:30:49.961Z,101407.69
2019-01-08T01:33:20.241Z,101413.72
2019-01-08T01:35:50.535Z,101417.00
2019-01-08T01:38:20.958Z,101412.75
2019-01-08T01:40:51.775Z,101415.84
2019-01-08T01:43:23.358Z,101410.06
2019-01-08T01:45:53.632Z,101410.06
2019-01-08T01:48:23.986Z,101419.66
2019-01-08T01:50:54.778Z,101418.20
2019-01-08T01:53:25.116Z,101422.95
2019-01-08T01:55:55.396Z,101420.95
2019-01-08T01:58:27.061Z,101418.39
2019-01-08T02:00:57.892Z,101408.26
2019-01-08T02:03:28.222Z,101408.07
2019-01-08T02:05:58.933Z,101403.92
2019-01-08T02:08:29.213Z,101400.66
2019-01-08T02:10:59.973Z,101406.72
2019-01-08T02:13:30.243Z,101407.06
2019-01-08T02:16:00.540Z,101400.59
2019-01-08T02:18:33.047Z,101405.89
2019-01-08T02:21:03.873Z,101408.80
2019-01-08T02:23:34.211Z,101408.86
2019-01-08T02:26:04.537Z,101410.88
2019-01-08T02:28:34.838Z,101410.30
2019-01-08T02:31:05.687Z,101410.56
2019-01-08T02:33:36.023Z,101409.08
2019-01-08T02:36:06.967Z,101405.02
2019-01-08T02:38:37.251Z,101404.67
2019-01-08T02:41:07.885Z,101406.51
2019-01-08T02:43:38.271Z,101407.25
2019-01-08T02:46:09.355Z,101401.48
2019-01-08T02:48:39.723Z,101400.85
2019-01-08T02:51:11.363Z,101409.98
2019-01-08T02:53:41.657Z,101394.33
2019-01-08T02:56:12.030Z,101396.30
2019-01-08T02:58:42.601Z,101396.95
2019-01-08T03:01:13.495Z,101386.43
2019-01-08T03:03:43.778Z,101376.77
2019-01-08T03:06:15.070Z,101373.95
2019-01-08T03:08:45.374Z,101377.85
2019-01-08T03:11:15.641Z,101371.66
2019-01-08T03:13:46.022Z,101373.00
2019-01-08T03:16:16.885Z,101362.91
2019-01-08T03:18:48.513Z,101370.16
2019-01-08T03:21:22.208Z,101363.62
2019-01-08T03:23:52.510Z,101366.06
2019-01-08T03:26:22.796Z,101358.13
2019-01-08T03:28:54.231Z,101353.91
2019-01-08T03:31:24.941Z,101348.86
2019-01-08T03:33:55.334Z,101348.23
2019-01-08T03:36:26.254Z,101350.88
2019-01-08T03:38:56.539Z,101345.20
2019-01-08T03:41:27.440Z,101347.86
2019-01-08T03:43:57.745Z,101345.28
2019-01-08T03:46:28.524Z,101342.88
2019-01-08T03:48:58.784Z,101340.73
2019-01-08T03:51:30.567Z,101334.75
2019-01-08T03:54:00.846Z,101336.54
2019-01-08T03:56:31.157Z,101318.52
2019-01-08T03:59:01.492Z,101326.19
2019-01-08T04:01:32.683Z,101321.34
2019-01-08T04:04:02.982Z,101318.31
2019-01-08T04:06:34.544Z,101325.30
2019-01-08T04:09:06.545Z,101321.91
2019-01-08T04:11:37.324Z,101321.91
2019-01-08T04:14:07.603Z,101318.13
2019-01-08T04:16:37.916Z,101316.67
2019-01-08T04:19:08.916Z,101308.00
2019-01-08T04:21:40.112Z,101316.97
2019-01-08T04:24:10.378Z,101307.93
2019-01-08T04:26:40.636Z,101301.09
2019-01-08T04:29:11.104Z,101299.09
2019-01-08T04:31:41.841Z,101299.62
2019-01-08T04:34:12.117Z,101293.12
2019-01-08T04:36:43.317Z,101294.94
2019-01-08T04:39:13.598Z,101288.75
2019-01-08T04:41:43.862Z,101283.88
2019-01-08T04:44:14.242Z,101284.61
2019-01-08T04:46:45.080Z,101285.50
2019-01-08T04:49:15.351Z,101281.89
2019-01-08T04:51:46.599Z,101273.34
2019-01-08T04:54:16.878Z,101280.33
2019-01-08T04:56:47.165Z,101273.22
2019-01-08T04:59:17.781Z,101272.13
2019-01-08T05:01:48.501Z,101261.91
2019-01-08T05:04:18.823Z,101256.29
2019-01-08T05:06:49.338Z,101253.58
2019-01-08T05:09:21.835Z,101248.31
2019-01-08T05:11:52.624Z,101252.36
2019-01-08T05:14:22.941Z,101241.39
2019-01-08T05:16:53.230Z,101241.78
2019-01-08T05:19:24.513Z,101234.69
2019-01-08T05:21:55.307Z,101243.94
2019-01-08T05:24:26.984Z,101243.22
2019-01-08T05:26:57.268Z,101239.09
2019-01-08T05:29:27.530Z,101234.84
2019-01-08T05:31:57.810Z,101237.82
2019-01-08T05:34:28.723Z,101230.58
2019-01-08T05:36:59.141Z,101220.23
2019-01-08T05:39:29.408Z,101223.45
2019-01-08T05:41:59.688Z,101219.25
2019-01-08T05:44:30.465Z,101215.08
2019-01-08T05:47:00.755Z,101207.80
2019-01-08T05:49:31.060Z,101194.35
2019-01-08T05:52:01.367Z,101197.30
2019-01-08T05:54:34.537Z,101201.23
2019-01-08T05:57:04.818Z,101195.75
2019-01-08T05:59:35.144Z,101185.74
2019-01-08T06:02:05.539Z,101188.59
2019-01-08T06:04:36.396Z,101182.67
2019-01-08T06:07:06.724Z,101183.03
2019-01-08T06:09:37.045Z,101188.05
2019-01-08T06:12:07.450Z,101183.55
2019-01-08T06:14:39.399Z,101176.77
2019-01-08T06:17:09.702Z,101167.30
2019-01-08T06:19:43.983Z,101166.42
2019-01-08T06:22:14.289Z,101169.75
2019-01-08T06:24:45.680Z,101153.47
2019-01-08T06:27:15.967Z,101148.23
2019-01-08T06:29:47.439Z,101151.74
2019-01-08T06:32:17.722Z,101148.89
2019-01-08T06:34:47.988Z,101142.63
2019-01-08T06:37:18.956Z,101152.16
2019-01-08T06:39:49.740Z,101144.66
2019-01-08T06:42:20.145Z,101137.09
2019-01-08T06:44:50.847Z,101133.72
2019-01-08T06:47:22.179Z,101127.48
2019-01-08T06:49:52.516Z,101138.94
2019-01-08T06:52:22.844Z,101138.14
2019-01-08T06:54:53.204Z,101137.98
2019-01-08T06:57:24.108Z,101125.20
2019-01-08T06:59:54.617Z,101107.52
2019-01-08T07:02:25.955Z,101124.11
2019-01-08T07:04:56.254Z,101117.58
2019-01-08T07:07:27.096Z,101126.48
2019-01-08T07:09:57.773Z,101109.68
2019-01-08T07:12:28.200Z,101121.77
2019-01-08T07:14:58.610Z,101119.55
2019-01-08T07:17:30.304Z,101125.45
2019-01-08T07:20:01.284Z,101118.36
2019-01-08T07:22:32.475Z,101125.27
2019-01-08T07:25:02.800Z,101118.50
2019-01-08T07:27:33.523Z,101112.89
2019-01-08T07:30:04.498Z,101116.22
2019-01-08T07:32:36.115Z,101114.91
2019-01-08T07:35:06.421Z,101121.30
2019-01-08T07:37:37.311Z,101134.06
2019-01-08T07:40:07.955Z,101121.16
2019-01-08T07:42:38.257Z,101126.55
2019-01-08T07:45:08.620Z,101129.56
2019-01-08T07:47:41.452Z,101117.70
2019-01-08T07:50:11.870Z,101127.12
2019-01-08T07:52:42.288Z,101136.85
2019-01-08T07:55:12.654Z,101134.44
2019-01-08T07:57:43.980Z,101157.47
2019-01-08T08:00:14.550Z,101138.54
2019-01-08T08:02:45.780Z,101137.25
2019-01-08T08:05:16.159Z,101139.32
2019-01-08T08:07:47.029Z,101138.55
2019-01-08T08:10:17.310Z,101136.75
2019-01-08T08:12:48.043Z,101135.33
2019-01-08T08:15:18.330Z,101134.59
2019-01-08T08:17:50.581Z,101137.47
2019-01-08T08:20:21.456Z,101139.16
2019-01-08T08:22:51.756Z,101142.88
2019-01-08T08:25:22.032Z,101135.89
2019-01-08T08:27:52.917Z,101130.66
2019-01-08T08:30:23.290Z,101134.38
2019-01-08T08:32:53.564Z,101127.16
2019-01-08T08:35:25.222Z,101123.67
2019-01-08T08:37:55.933Z,101131.38
2019-01-08T08:40:26.216Z,101127.91
2019-01-08T08:42:56.509Z,101124.45
2019-01-08T08:45:26.893Z,101124.24
2019-01-08T08:47:57.672Z,101114.20
2019-01-08T08:50:29.349Z,101116.07
2019-01-08T08:52:59.940Z,101118.58
2019-01-08T08:55:31.253Z,101102.59
2019-01-08T08:58:02.000Z,101111.67
2019-01-08T09:00:32.340Z,101107.66
2019-01-08T09:03:04.372Z,101113.30
2019-01-08T09:05:40.122Z,101108.59
2019-01-08T09:08:14.744Z,101092.93
2019-01-08T09:10:46.225Z,101103.69
2019-01-08T09:13:16.537Z,101110.63
2019-01-08T09:15:47.302Z,101102.36
2019-01-08T09:18:18.616Z,101100.00
2019-01-08T09:20:51.871Z,101101.16
2019-01-08T09:23:22.446Z,101105.30
2019-01-08T09:25:53.034Z,101099.70
2019-01-08T09:28:24.220Z,101112.66
2019-01-08T09:30:55.671Z,101104.73
2019-01-08T09:33:26.393Z,101100.23
2019-01-08T09:35:58.820Z,101100.30
2019-01-08T09:38:29.250Z,101100.95
2019-01-08T09:41:00.166Z,101106.59
2019-01-08T09:43:31.216Z,101102.81
2019-01-08T09:46:02.235Z,101101.70
2019-01-08T09:48:32.887Z,101098.20
2019-01-08T09:51:03.704Z,101090.03
2019-01-08T09:53:35.433Z,101099.03
2019-01-08T09:56:06.268Z,101094.94
2019-01-08T09:58:36.598Z,101099.70
2019-01-08T10:01:07.031Z,101095.45
2019-01-08T10:03:37.329Z,101089.22
2019-01-08T10:06:07.632Z,101090.27
2019-01-08T10:08:39.030Z,101090.36
2019-01-08T10:11:09.368Z,101091.25
2019-01-08T10:13:39.639Z,101097.44
2019-01-08T10:16:10.036Z,101093.23
2019-01-08T10:18:42.762Z,101089.34
2019-01-08T10:21:14.587Z,101094.86
2019-01-08T10:23:44.840Z,101092.71
2019-01-08T10:26:15.318Z,101081.10
2019-01-08T10:28:46.463Z,101090.55
2019-01-08T10:31:16.782Z,101080.81
2019-01-08T10:33:47.080Z,101080.48
2019-01-08T10:36:17.504Z,101074.34
2019-01-08T10:38:47.915Z,101063.83
2019-01-08T10:41:18.686Z,101061.40
2019-01-08T10:43:49.122Z,101060.59
2019-01-08T10:46:19.566Z,101053.84
2019-01-08T10:48:49.865Z,101061.91
2019-01-08T10:51:20.199Z,101056.79
2019-01-08T10:53:50.545Z,101052.91
2019-01-08T10:56:21.310Z,101044.88
2019-01-08T10:58:51.622Z,101045.56
2019-01-08T11:01:21.947Z,101060.36
2019-01-08T11:03:52.234Z,101052.02
2019-01-08T11:06:22.512Z,101045.93
2019-01-08T11:08:53.296Z,101042.12
2019-01-08T11:11:23.582Z,101043.37
2019-01-08T11:13:54.360Z,101034.64
2019-01-08T11:16:24.705Z,101033.80
2019-01-08T11:18:55.526Z,101026.56
2019-01-08T11:21:26.934Z,101031.18
2019-01-08T11:23:58.795Z,101020.08
2019-01-08T11:26:29.147Z,101024.45
2019-01-08T11:29:01.252Z,101019.59
2019-01-08T11:31:31.730Z,101028.09
2019-01-08T11:34:05.050Z,101012.61
2019-01-08T11:36:35.355Z,101020.17
2019-01-08T11:39:07.298Z,101013.87
2019-01-08T11:41:38.189Z,101014.97
2019-01-08T11:44:10.403Z,101025.91
2019-01-08T11:46:40.729Z,101021.03
2019-01-08T11:49:12.036Z,101010.81
2019-01-08T11:51:42.902Z,101006.03
2019-01-08T11:54:13.622Z,101006.08
2019-01-08T11:56:43.958Z,100983.51
2019-01-08T11:59:14.771Z,100992.03
2019-01-08T12:01:45.933Z,100982.59
2019-01-08T12:04:17.733Z,100993.13
2019-01-08T12:06:48.045Z,100992.95
2019-01-08T12:09:19.406Z,100993.98
2019-01-08T12:11:49.728Z,100995.59
2019-01-08T12:14:20.130Z,100977.13
2019-01-08T12:16:50.429Z,100981.77
2019-01-08T12:19:22.572Z,100980.14
2019-01-08T12:21:54.559Z,100977.39
2019-01-08T12:24:24.884Z,100990.63
2019-01-08T12:26:55.581Z,100970.70
2019-01-08T12:29:26.564Z,100981.22
2019-01-08T12:32:05.608Z,100962.78
2019-01-08T12:34:29.976Z,100964.73
2019-01-08T12:37:00.253Z,100967.81
2019-01-08T12:39:31.063Z,100965.39
2019-01-08T12:42:01.551Z,100978.53
2019-01-08T12:44:32.110Z,100993.47
2019-01-08T12:47:02.405Z,100978.52
2019-01-08T12:49:34.530Z,100978.78
2019-01-08T12:52:05.004Z,100987.45
2019-01-08T12:54:35.501Z,100989.39
2019-01-08T12:57:05.776Z,100996.23
2019-01-08T12:59:36.665Z,101007.23
2019-01-08T13:02:14.646Z,101017.11
2019-01-08T13:04:39.663Z,101005.52
2019-01-08T13:07:09.925Z,101012.14
2019-01-08T13:09:40.830Z,101010.13
2019-01-08T13:12:11.137Z,100998.50
2019-01-08T13:14:41.442Z,100999.33
2019-01-08T13:17:11.937Z,100993.15
2019-01-08T13:19:42.814Z,100998.86
2019-01-08T13:22:16.214Z,100988.75
2019-01-08T13:24:46.511Z,100983.94
2019-01-08T13:27:16.902Z,100984.00
2019-01-08T13:29:47.861Z,100995.31
2019-01-08T13:32:23.120Z,100995.22
2019-01-08T13:34:50.292Z,101014.41
2019-01-08T13:37:20.563Z,101022.02
2019-01-08T13:39:51.071Z,100997.05
2019-01-08T13:42:21.946Z,101004.41
2019-01-08T13:44:52.222Z,100997.95
2019-01-08T13:47:22.518Z,100987.70
2019-01-08T13:49:52.837Z,100984.52
2019-01-08T13:52:23.110Z,100996.16
2019-01-08T13:54:53.926Z,100993.50
2019-01-08T13:57:24.947Z,100991.39
2019-01-08T13:59:55.474Z,101007.11
2019-01-08T14:02:31.811Z,101020.19
2019-01-08T14:04:57.814Z,101019.84
2019-01-08T14:07:28.122Z,101042.22
2019-01-08T14:09:59.417Z,101037.64
2019-01-08T14:12:29.729Z,101029.48
2019-01-08T14:15:00.178Z,101025.95
2019-01-08T14:17:30.484Z,101034.52
2019-01-08T14:20:01.322Z,101033.23
2019-01-08T14:22:33.038Z,101041.30
2019-01-08T14:25:04.676Z,101037.27
2019-01-08T14:27:36.073Z,101028.72
2019-01-08T14:30:08.087Z,101027.77
2019-01-08T14:32:40.842Z,101032.30
2019-01-08T14:35:10.735Z,101038.03
2019-01-08T14:37:41.041Z,101044.81
2019-01-08T14:40:11.979Z,101036.27
2019-01-08T14:42:42.531Z,101032.26
2019-01-08T14:45:12.891Z,101043.63
2019-01-08T14:47:43.142Z,101049.84
2019-01-08T14:50:13.971Z,101035.66
2019-01-08T14:52:44.249Z,101040.73
2019-01-08T14:55:14.533Z,101035.33
2019-01-08T14:57:45.820Z,101038.61
2019-01-08T15:00:16.719Z,101036.59
2019-01-08T15:02:49.752Z,101044.17
2019-01-08T15:05:20.566Z,101049.21
2019-01-08T15:07:51.101Z,101032.49
2019-01-08T15:10:21.848Z,101034.84
2019-01-08T15:12:53.393Z,101033.89
2019-01-08T15:15:23.667Z,101036.45
2019-01-08T15:17:54.067Z,101036.06
2019-01-08T15:20:24.880Z,101036.22
2019-01-08T15:22:55.548Z,101036.03
2019-01-08T15:25:25.842Z,101048.75
2019-01-08T15:27:56.783Z,101054.66
2019-01-08T15:30:27.633Z,101051.84
2019-01-08T15:32:58.639Z,101042.86
2019-01-08T15:35:29.030Z,101090.66
2019-01-08T15:37:59.413Z,101087.95
2019-01-08T15:40:30.277Z,101078.92
2019-01-08T15:43:00.649Z,101084.69
2019-01-08T15:45:31.071Z,101084.86
2019-01-08T15:48:01.362Z,101085.94
2019-01-08T15:50:32.211Z,101089.14
2019-01-08T15:53:02.501Z,101084.30
2019-01-08T15:55:32.918Z,101083.70
2019-01-08T15:58:03.202Z,101095.91
2019-01-08T16:00:34.640Z,101094.20
2019-01-08T16:03:07.587Z,101099.16
2019-01-08T16:05:37.301Z,101096.50
2019-01-08T16:08:07.732Z,101106.70
2019-01-08T16:10:38.686Z,101088.59
2019-01-08T16:13:08.992Z,101091.47
2019-01-08T16:15:40.791Z,101087.19
2019-01-08T16:18:11.079Z,101093.24
2019-01-08T16:20:42.043Z,101086.94
2019-01-08T16:23:13.650Z,101090.97
2019-01-08T16:25:44.003Z,101098.70
2019-01-08T16:28:14.327Z,101099.72
2019-01-08T16:30:46.823Z,101103.75
2019-01-08T16:33:17.161Z,101093.37
2019-01-08T16:35:47.495Z,101089.27
2019-01-08T16:38:18.295Z,101076.77
2019-01-08T16:40:49.168Z,101071.33
2019-01-08T16:43:19.459Z,101072.86
2019-01-08T16:45:50.419Z,101066.38
2019-01-08T16:48:20.748Z,101062.98
2019-01-08T16:50:51.982Z,101065.77
2019-01-08T16:53:22.298Z,101070.27
2019-01-08T16:55:52.605Z,101079.46
2019-01-08T16:58:22.997Z,101078.08
2019-01-08T17:00:55.063Z,101066.22
2019-01-08T17:03:26.788Z,101064.89
2019-01-08T17:05:57.235Z,101063.22
2019-01-08T17:08:27.601Z,101056.45
2019-01-08T17:10:58.480Z,101059.19
2019-01-08T17:13:28.818Z,101069.11
2019-01-08T17:16:00.057Z,101067.36
2019-01-08T17:18:30.390Z,101067.10
2019-01-08T17:21:01.487Z,101066.05
2019-01-08T17:23:32.396Z,101069.69
2019-01-08T17:26:02.802Z,101057.96
2019-01-08T17:28:33.217Z,101064.06
2019-01-08T17:31:05.386Z,101074.03
2019-01-08T17:33:35.702Z,101073.97
2019-01-08T17:36:05.981Z,101072.97
2019-01-08T17:38:36.263Z,101067.58
2019-01-08T17:41:06.262Z,101063.34
2019-01-08T17:43:36.554Z,101072.19
2019-01-08T17:46:06.846Z,101062.70
2019-01-08T17:48:39.068Z,101081.32
2019-01-08T17:51:09.855Z,101077.98
2019-01-08T17:53:40.279Z,101069.56
2019-01-08T17:56:10.928Z,101066.16
2019-01-08T17:58:43.651Z,101063.47
2019-01-08T18:01:34.949Z,101067.87
2019-01-08T18:04:07.195Z,101068.57
2019-01-08T18:06:37.528Z,101055.38
2019-01-08T18:09:08.292Z,101054.50
2019-01-08T18:11:39.162Z,101058.55
2019-01-08T18:14:09.515Z,101063.53
2019-01-08T18:16:40.058Z,101057.30
2019-01-08T18:19:11.936Z,101053.87
2019-01-08T18:21:42.750Z,101061.59
2019-01-08T18:24:13.171Z,101052.23
2019-01-08T18:26:43.683Z,101065.20
2019-01-08T18:29:14.212Z,101056.64
2019-01-08T18:31:45.059Z,101066.08
2019-01-08T18:34:16.524Z,101062.73
2019-01-08T18:36:47.807Z,101080.16
2019-01-08T18:39:18.090Z,101078.13
2019-01-08T18:41:49.395Z,101071.17
2019-01-08T18:44:20.363Z,101085.52
2019-01-08T18:46:50.635Z,101074.88
2019-01-08T18:49:22.048Z,101078.02
2019-01-08T18:51:52.366Z,101078.70
2019-01-08T18:54:22.880Z,101082.86
2019-01-08T18:56:53.754Z,101082.20
2019-01-08T18:59:24.817Z,101083.93
2019-01-08T19:01:56.047Z,101088.20
2019-01-08T19:04:27.641Z,101085.95
2019-01-08T19:06:57.948Z,101083.70
2019-01-08T19:09:34.008Z,101094.20
2019-01-08T19:12:05.399Z,101087.38
2019-01-08T19:14:45.146Z,101082.16
2019-01-08T19:17:15.439Z,101089.81
2019-01-08T19:19:46.439Z,101083.97
2019-01-08T19:22:17.190Z,101089.95
2019-01-08T19:24:50.826Z,101076.00
2019-01-08T19:27:22.332Z,101078.29
2019-01-08T19:29:52.797Z,101078.91
2019-01-08T19:32:23.598Z,101082.77
2019-01-08T19:34:54.947Z,101085.42
2019-01-08T19:37:25.307Z,101076.23
2019-01-08T19:39:55.718Z,101078.25
2019-01-08T19:42:26.558Z,101076.24
2019-01-08T19:44:56.869Z,101068.42
2019-01-08T19:47:28.508Z,101064.41
2019-01-08T19:49:58.765Z,101062.25
2019-01-08T19:52:30.399Z,101059.67
2019-01-08T19:55:00.691Z,101055.27
2019-01-08T19:57:31.101Z,101066.12
2019-01-08T20:00:01.398Z,101070.04
2019-01-08T20:02:33.161Z,101067.79
2019-01-08T20:05:03.463Z,101074.95
2019-01-08T20:07:35.062Z,101089.67
2019-01-08T20:10:07.177Z,101086.31
2019-01-08T20:12:37.932Z,101101.40
2019-01-08T20:15:10.077Z,101105.06
2019-01-08T20:17:40.559Z,101104.90
2019-01-08T20:20:11.254Z,101107.12
2019-01-08T20:22:42.615Z,101095.30
2019-01-08T20:25:14.288Z,101107.75
2019-01-08T20:27:44.630Z,101103.16
2019-01-08T20:30:15.039Z,101104.94
2019-01-08T20:32:46.114Z,101103.09
2019-01-08T20:35:16.442Z,101107.23
2019-01-08T20:37:47.790Z,101111.48
2019-01-08T20:40:18.175Z,101108.11
2019-01-08T20:42:49.100Z,101106.47
2019-01-08T20:45:19.391Z,101110.48
2019-01-08T20:47:49.799Z,101109.20
2019-01-08T20:50:20.261Z,101113.44
2019-01-08T20:52:53.071Z,101110.69
2019-01-08T20:55:23.343Z,101114.57
2019-01-08T20:57:53.633Z,101111.58
2019-01-08T21:00:24.061Z,101115.45
2019-01-08T21:02:54.781Z,101117.91
2019-01-08T21:05:25.498Z,101118.62
2019-01-08T21:07:56.176Z,101118.05
2019-01-08T21:10:26.563Z,101114.40
2019-01-08T21:12:57.297Z,101121.68
2019-01-08T21:15:28.063Z,101112.55
2019-01-08T21:17:59.401Z,101102.39
2019-01-08T21:20:29.806Z,101109.76
2019-01-08T21:23:00.219Z,101114.75
2019-01-08T21:25:32.482Z,101106.17
2019-01-08T21:28:02.940Z,101104.22
2019-01-08T21:30:33.383Z,101113.92
2019-01-08T21:33:03.637Z,101112.64
2019-01-08T21:35:33.976Z,101106.00
2019-01-08T21:38:04.747Z,101109.42
2019-01-08T21:40:35.617Z,101112.25
2019-01-08T21:43:06.355Z,101109.61
2019-01-08T21:45:36.699Z,101116.36
2019-01-08T21:48:07.628Z,101113.52
2019-01-08T21:50:38.123Z,101122.22
2019-01-08T21:53:08.724Z,101118.13
2019-01-08T21:55:40.439Z,101116.31
2019-01-08T21:58:11.281Z,101123.32
2019-01-08T22:00:41.758Z,101115.80
2019-01-08T22:03:12.139Z,101114.88
2019-01-08T22:05:42.433Z,101117.80
2019-01-08T22:08:13.011Z,101119.66
2019-01-08T22:10:43.827Z,101108.53
2019-01-08T22:13:14.471Z,101112.28
2019-01-08T22:15:44.861Z,101113.61
2019-01-08T22:18:15.234Z,101122.31
2019-01-08T22:20:46.024Z,101108.69
2019-01-08T22:23:17.180Z,101118.51
2019-01-08T22:25:50.337Z,101109.70
2019-01-08T22:28:23.996Z,101114.36
2019-01-08T22:30:55.043Z,101107.14
2019-01-08T22:33:25.363Z,101102.56
2019-01-08T22:35:55.737Z,101099.31
2019-01-08T22:38:26.151Z,101096.72
2019-01-08T22:40:57.094Z,101106.41
2019-01-08T22:43:29.027Z,101096.81
2019-01-08T22:45:59.418Z,101104.28
2019-01-08T22:48:29.985Z,101114.83
2019-01-08T22:51:00.779Z,101106.78
2019-01-08T22:53:31.243Z,101105.61
2019-01-08T22:56:02.054Z,101104.06
2019-01-08T22:58:33.640Z,101086.64
2019-01-08T23:01:17.713Z,101084.35
2019-01-08T23:03:48.035Z,101078.17
2019-01-08T23:06:18.339Z,101076.93
2019-01-08T23:08:48.750Z,101075.05
2019-01-08T23:11:21.660Z,101082.43
2019-01-08T23:13:52.308Z,101070.70
2019-01-08T23:16:22.634Z,101068.41
2019-01-08T23:18:53.009Z,101080.24
2019-01-08T23:21:23.986Z,101076.24
2019-01-08T23:23:54.356Z,101083.73
2019-01-08T23:26:27.886Z,101083.27
2019-01-08T23:28:58.338Z,101066.56
2019-01-08T23:31:30.507Z,101080.98
2019-01-08T23:34:00.810Z,101079.65
2019-01-08T23:36:31.163Z,101069.09
2019-01-08T23:39:01.460Z,101072.73
2019-01-08T23:41:32.732Z,101067.96
2019-01-08T23:44:03.612Z,101064.27
2019-01-08T23:46:33.953Z,101059.00
2019-01-08T23:49:05.203Z,101060.83
2019-01-08T23:51:35.472Z,101056.28
2019-01-08T23:54:06.346Z,101055.44
2019-01-08T23:56:36.634Z,101060.59
2019-01-08T23:59:06.934Z,101060.94
